sensor_id;sensor_type;location;lat;lon;timestamp;P1;durP1;ratioP1;P2;durP2;ratioP2
36233;SDS011;43467;50.890;5.982;2023-04-15T00:01:37;10.18;;;4.70;;
36233;SDS011;43467;50.890;5.982;2023-04-15T00:04:02;7.18;;;3.40;;
36233;SDS011;43467;50.890;5.982;2023-04-15T00:06:28;9.85;;;4.25;;
36233;SDS011;43467;50.890;5.982;2023-04-15T00:08:53;11.25;;;3.78;;
36233;SDS011;43467;50.890;5.982;2023-04-15T00:11:19;6.68;;;3.38;;
36233;SDS011;43467;50.890;5.982;2023-04-15T00:13:45;6.72;;;3.60;;
36233;SDS011;43467;50.890;5.982;2023-04-15T00:16:10;6.53;;;3.38;;
36233;SDS011;43467;50.890;5.982;2023-04-15T00:18:36;12.20;;;3.33;;
36233;SDS011;43467;50.890;5.982;2023-04-15T00:21:02;9.57;;;3.65;;
36233;SDS011;43467;50.890;5.982;2023-04-15T00:23:28;7.22;;;3.60;;
36233;SDS011;43467;50.890;5.982;2023-04-15T00:25:54;6.07;;;3.53;;
36233;SDS011;43467;50.890;5.982;2023-04-15T00:28:19;7.72;;;3.58;;
36233;SDS011;43467;50.890;5.982;2023-04-15T00:30:45;7.47;;;3.97;;
36233;SDS011;43467;50.890;5.982;2023-04-15T00:33:12;6.53;;;2.80;;
36233;SDS011;43467;50.890;5.982;2023-04-15T00:35:38;5.93;;;3.35;;
36233;SDS011;43467;50.890;5.982;2023-04-15T00:38:04;11.15;;;4.05;;
36233;SDS011;43467;50.890;5.982;2023-04-15T00:40:31;9.63;;;3.70;;
36233;SDS011;43467;50.890;5.982;2023-04-15T00:42:57;9.70;;;3.60;;
36233;SDS011;43467;50.890;5.982;2023-04-15T00:45:22;6.63;;;3.80;;
36233;SDS011;43467;50.890;5.982;2023-04-15T00:47:48;7.13;;;3.25;;
36233;SDS011;43467;50.890;5.982;2023-04-15T00:50:14;9.02;;;3.65;;
36233;SDS011;43467;50.890;5.982;2023-04-15T00:52:40;6.43;;;3.20;;
36233;SDS011;43467;50.890;5.982;2023-04-15T00:55:05;5.57;;;3.25;;
36233;SDS011;43467;50.890;5.982;2023-04-15T00:57:32;9.23;;;3.25;;
36233;SDS011;43467;50.890;5.982;2023-04-15T00:59:57;4.75;;;2.95;;
36233;SDS011;43467;50.890;5.982;2023-04-15T01:02:23;5.85;;;3.20;;
36233;SDS011;43467;50.890;5.982;2023-04-15T01:04:48;9.43;;;3.38;;
36233;SDS011;43467;50.890;5.982;2023-04-15T01:07:14;9.30;;;2.95;;
36233;SDS011;43467;50.890;5.982;2023-04-15T01:09:40;8.80;;;3.15;;
36233;SDS011;43467;50.890;5.982;2023-04-15T01:12:06;7.53;;;3.28;;
36233;SDS011;43467;50.890;5.982;2023-04-15T01:14:34;7.10;;;2.90;;
36233;SDS011;43467;50.890;5.982;2023-04-15T01:16:59;8.27;;;2.70;;
36233;SDS011;43467;50.890;5.982;2023-04-15T01:19:26;9.13;;;3.00;;
36233;SDS011;43467;50.890;5.982;2023-04-15T01:21:52;5.50;;;2.85;;
36233;SDS011;43467;50.890;5.982;2023-04-15T01:24:18;6.47;;;2.97;;
36233;SDS011;43467;50.890;5.982;2023-04-15T01:26:44;5.78;;;2.88;;
36233;SDS011;43467;50.890;5.982;2023-04-15T01:29:09;4.35;;;2.78;;
36233;SDS011;43467;50.890;5.982;2023-04-15T01:31:34;7.35;;;3.00;;
36233;SDS011;43467;50.890;5.982;2023-04-15T01:34:00;4.85;;;2.67;;
36233;SDS011;43467;50.890;5.982;2023-04-15T01:36:26;7.72;;;3.03;;
36233;SDS011;43467;50.890;5.982;2023-04-15T01:38:52;4.80;;;2.40;;
36233;SDS011;43467;50.890;5.982;2023-04-15T01:41:23;5.28;;;2.60;;
36233;SDS011;43467;50.890;5.982;2023-04-15T01:43:50;4.95;;;2.75;;
36233;SDS011;43467;50.890;5.982;2023-04-15T01:46:16;5.53;;;2.85;;
36233;SDS011;43467;50.890;5.982;2023-04-15T01:48:42;7.82;;;3.08;;
36233;SDS011;43467;50.890;5.982;2023-04-15T01:51:07;6.13;;;3.25;;
36233;SDS011;43467;50.890;5.982;2023-04-15T01:53:32;6.55;;;3.00;;
36233;SDS011;43467;50.890;5.982;2023-04-15T01:55:58;6.07;;;2.50;;
36233;SDS011;43467;50.890;5.982;2023-04-15T01:58:23;6.35;;;2.78;;
36233;SDS011;43467;50.890;5.982;2023-04-15T02:00:49;7.97;;;3.63;;
36233;SDS011;43467;50.890;5.982;2023-04-15T02:03:14;13.60;;;3.40;;
36233;SDS011;43467;50.890;5.982;2023-04-15T02:05:39;9.88;;;3.00;;
36233;SDS011;43467;50.890;5.982;2023-04-15T02:08:05;7.00;;;2.80;;
36233;SDS011;43467;50.890;5.982;2023-04-15T02:10:30;6.63;;;3.22;;
36233;SDS011;43467;50.890;5.982;2023-04-15T02:12:56;7.90;;;3.03;;
36233;SDS011;43467;50.890;5.982;2023-04-15T02:15:21;7.68;;;2.97;;
36233;SDS011;43467;50.890;5.982;2023-04-15T02:17:46;7.53;;;2.92;;
36233;SDS011;43467;50.890;5.982;2023-04-15T02:20:15;6.97;;;3.08;;
36233;SDS011;43467;50.890;5.982;2023-04-15T02:22:41;7.78;;;3.35;;
36233;SDS011;43467;50.890;5.982;2023-04-15T02:25:07;8.25;;;3.47;;
36233;SDS011;43467;50.890;5.982;2023-04-15T02:27:35;8.23;;;3.00;;
36233;SDS011;43467;50.890;5.982;2023-04-15T02:30:01;6.75;;;2.97;;
36233;SDS011;43467;50.890;5.982;2023-04-15T02:32:27;9.52;;;2.80;;
36233;SDS011;43467;50.890;5.982;2023-04-15T02:34:53;6.95;;;2.97;;
36233;SDS011;43467;50.890;5.982;2023-04-15T02:37:18;5.90;;;2.88;;
36233;SDS011;43467;50.890;5.982;2023-04-15T02:39:44;9.55;;;3.13;;
36233;SDS011;43467;50.890;5.982;2023-04-15T02:42:10;6.50;;;3.03;;
36233;SDS011;43467;50.890;5.982;2023-04-15T02:44:35;6.15;;;3.05;;
36233;SDS011;43467;50.890;5.982;2023-04-15T02:47:01;6.15;;;3.42;;
36233;SDS011;43467;50.890;5.982;2023-04-15T02:49:28;5.47;;;3.03;;
36233;SDS011;43467;50.890;5.982;2023-04-15T02:51:55;7.53;;;3.47;;
36233;SDS011;43467;50.890;5.982;2023-04-15T02:54:22;7.93;;;3.15;;
36233;SDS011;43467;50.890;5.982;2023-04-15T02:56:47;9.50;;;3.50;;
36233;SDS011;43467;50.890;5.982;2023-04-15T02:59:14;7.05;;;3.42;;
36233;SDS011;43467;50.890;5.982;2023-04-15T03:01:39;7.05;;;3.03;;
36233;SDS011;43467;50.890;5.982;2023-04-15T03:04:05;13.25;;;3.13;;
36233;SDS011;43467;50.890;5.982;2023-04-15T03:06:32;8.05;;;3.13;;
36233;SDS011;43467;50.890;5.982;2023-04-15T03:08:58;5.45;;;3.13;;
36233;SDS011;43467;50.890;5.982;2023-04-15T03:11:24;6.20;;;2.85;;
36233;SDS011;43467;50.890;5.982;2023-04-15T03:13:51;5.13;;;3.30;;
36233;SDS011;43467;50.890;5.982;2023-04-15T03:16:16;5.50;;;3.50;;
36233;SDS011;43467;50.890;5.982;2023-04-15T03:18:42;4.97;;;3.08;;
36233;SDS011;43467;50.890;5.982;2023-04-15T03:21:07;8.80;;;4.05;;
36233;SDS011;43467;50.890;5.982;2023-04-15T03:23:33;12.40;;;4.43;;
36233;SDS011;43467;50.890;5.982;2023-04-15T03:26:00;10.20;;;4.18;;
36233;SDS011;43467;50.890;5.982;2023-04-15T03:28:26;4.97;;;3.40;;
36233;SDS011;43467;50.890;5.982;2023-04-15T03:30:52;7.18;;;3.72;;
36233;SDS011;43467;50.890;5.982;2023-04-15T03:33:17;7.25;;;4.03;;
36233;SDS011;43467;50.890;5.982;2023-04-15T03:35:43;8.82;;;4.05;;
36233;SDS011;43467;50.890;5.982;2023-04-15T03:38:08;10.63;;;4.35;;
36233;SDS011;43467;50.890;5.982;2023-04-15T03:40:34;9.10;;;4.28;;
36233;SDS011;43467;50.890;5.982;2023-04-15T03:42:59;9.93;;;4.38;;
36233;SDS011;43467;50.890;5.982;2023-04-15T03:45:25;9.15;;;3.58;;
36233;SDS011;43467;50.890;5.982;2023-04-15T03:47:50;6.68;;;3.65;;
36233;SDS011;43467;50.890;5.982;2023-04-15T03:50:16;8.02;;;4.03;;
36233;SDS011;43467;50.890;5.982;2023-04-15T03:52:42;9.10;;;4.15;;
36233;SDS011;43467;50.890;5.982;2023-04-15T03:55:08;9.60;;;3.40;;
36233;SDS011;43467;50.890;5.982;2023-04-15T03:57:34;9.68;;;3.53;;
36233;SDS011;43467;50.890;5.982;2023-04-15T04:00:06;8.02;;;4.22;;
36233;SDS011;43467;50.890;5.982;2023-04-15T04:02:34;8.95;;;4.68;;
36233;SDS011;43467;50.890;5.982;2023-04-15T04:04:59;8.75;;;4.28;;
36233;SDS011;43467;50.890;5.982;2023-04-15T04:07:24;10.45;;;3.80;;
36233;SDS011;43467;50.890;5.982;2023-04-15T04:09:50;6.88;;;3.92;;
36233;SDS011;43467;50.890;5.982;2023-04-15T04:12:16;8.32;;;3.55;;
36233;SDS011;43467;50.890;5.982;2023-04-15T04:14:41;8.60;;;3.70;;
36233;SDS011;43467;50.890;5.982;2023-04-15T04:17:06;10.85;;;4.22;;
36233;SDS011;43467;50.890;5.982;2023-04-15T04:19:32;8.02;;;3.63;;
36233;SDS011;43467;50.890;5.982;2023-04-15T04:21:57;10.38;;;4.20;;
36233;SDS011;43467;50.890;5.982;2023-04-15T04:24:23;9.77;;;3.88;;
36233;SDS011;43467;50.890;5.982;2023-04-15T04:26:48;11.50;;;4.47;;
36233;SDS011;43467;50.890;5.982;2023-04-15T04:29:14;9.70;;;4.65;;
36233;SDS011;43467;50.890;5.982;2023-04-15T04:31:39;8.93;;;4.30;;
36233;SDS011;43467;50.890;5.982;2023-04-15T04:34:05;8.30;;;4.22;;
36233;SDS011;43467;50.890;5.982;2023-04-15T04:36:31;10.68;;;4.13;;
36233;SDS011;43467;50.890;5.982;2023-04-15T04:38:56;9.98;;;4.22;;
36233;SDS011;43467;50.890;5.982;2023-04-15T04:41:21;13.82;;;4.55;;
36233;SDS011;43467;50.890;5.982;2023-04-15T04:43:47;9.85;;;3.58;;
36233;SDS011;43467;50.890;5.982;2023-04-15T04:46:13;9.00;;;3.83;;
36233;SDS011;43467;50.890;5.982;2023-04-15T04:48:39;10.50;;;3.97;;
36233;SDS011;43467;50.890;5.982;2023-04-15T04:51:05;10.98;;;4.30;;
36233;SDS011;43467;50.890;5.982;2023-04-15T04:53:31;9.60;;;4.05;;
36233;SDS011;43467;50.890;5.982;2023-04-15T04:55:57;14.80;;;5.72;;
36233;SDS011;43467;50.890;5.982;2023-04-15T04:58:23;7.38;;;3.90;;
36233;SDS011;43467;50.890;5.982;2023-04-15T05:00:48;13.68;;;5.40;;
36233;SDS011;43467;50.890;5.982;2023-04-15T05:03:14;8.45;;;4.55;;
36233;SDS011;43467;50.890;5.982;2023-04-15T05:05:39;10.07;;;4.65;;
36233;SDS011;43467;50.890;5.982;2023-04-15T05:08:05;12.90;;;5.13;;
36233;SDS011;43467;50.890;5.982;2023-04-15T05:10:31;9.75;;;4.53;;
36233;SDS011;43467;50.890;5.982;2023-04-15T05:12:57;12.32;;;4.88;;
36233;SDS011;43467;50.890;5.982;2023-04-15T05:15:22;13.23;;;5.63;;
36233;SDS011;43467;50.890;5.982;2023-04-15T05:17:47;11.65;;;4.22;;
36233;SDS011;43467;50.890;5.982;2023-04-15T05:20:13;11.88;;;4.78;;
36233;SDS011;43467;50.890;5.982;2023-04-15T05:22:38;7.97;;;4.60;;
36233;SDS011;43467;50.890;5.982;2023-04-15T05:25:04;11.73;;;5.22;;
36233;SDS011;43467;50.890;5.982;2023-04-15T05:27:30;10.45;;;4.80;;
36233;SDS011;43467;50.890;5.982;2023-04-15T05:29:55;10.77;;;4.90;;
36233;SDS011;43467;50.890;5.982;2023-04-15T05:32:21;10.80;;;5.00;;
36233;SDS011;43467;50.890;5.982;2023-04-15T05:34:46;9.52;;;4.75;;
36233;SDS011;43467;50.890;5.982;2023-04-15T05:37:11;9.15;;;4.45;;
36233;SDS011;43467;50.890;5.982;2023-04-15T05:39:37;9.38;;;4.50;;
36233;SDS011;43467;50.890;5.982;2023-04-15T05:42:02;6.70;;;3.88;;
36233;SDS011;43467;50.890;5.982;2023-04-15T05:44:29;10.50;;;4.25;;
36233;SDS011;43467;50.890;5.982;2023-04-15T05:46:55;12.48;;;4.38;;
36233;SDS011;43467;50.890;5.982;2023-04-15T05:49:20;11.30;;;4.10;;
36233;SDS011;43467;50.890;5.982;2023-04-15T05:51:46;9.63;;;3.70;;
36233;SDS011;43467;50.890;5.982;2023-04-15T05:54:12;10.45;;;3.97;;
36233;SDS011;43467;50.890;5.982;2023-04-15T05:56:37;10.68;;;4.40;;
36233;SDS011;43467;50.890;5.982;2023-04-15T05:59:03;10.10;;;5.10;;
36233;SDS011;43467;50.890;5.982;2023-04-15T06:01:28;10.65;;;4.35;;
36233;SDS011;43467;50.890;5.982;2023-04-15T06:03:54;10.95;;;4.75;;
36233;SDS011;43467;50.890;5.982;2023-04-15T06:06:19;9.38;;;4.30;;
36233;SDS011;43467;50.890;5.982;2023-04-15T06:08:45;16.02;;;4.93;;
36233;SDS011;43467;50.890;5.982;2023-04-15T06:11:11;11.73;;;4.50;;
36233;SDS011;43467;50.890;5.982;2023-04-15T06:13:36;8.30;;;3.50;;
36233;SDS011;43467;50.890;5.982;2023-04-15T06:16:02;11.43;;;4.55;;
36233;SDS011;43467;50.890;5.982;2023-04-15T06:18:28;16.15;;;5.90;;
36233;SDS011;43467;50.890;5.982;2023-04-15T06:20:53;11.57;;;5.13;;
36233;SDS011;43467;50.890;5.982;2023-04-15T06:23:19;13.43;;;4.47;;
36233;SDS011;43467;50.890;5.982;2023-04-15T06:25:44;11.40;;;4.97;;
36233;SDS011;43467;50.890;5.982;2023-04-15T06:28:09;11.18;;;5.18;;
36233;SDS011;43467;50.890;5.982;2023-04-15T06:30:35;12.48;;;4.88;;
36233;SDS011;43467;50.890;5.982;2023-04-15T06:33:00;11.95;;;5.30;;
36233;SDS011;43467;50.890;5.982;2023-04-15T06:35:29;11.95;;;4.93;;
36233;SDS011;43467;50.890;5.982;2023-04-15T06:37:54;11.90;;;4.80;;
36233;SDS011;43467;50.890;5.982;2023-04-15T06:40:20;11.02;;;4.85;;
36233;SDS011;43467;50.890;5.982;2023-04-15T06:42:46;12.30;;;5.25;;
36233;SDS011;43467;50.890;5.982;2023-04-15T06:45:11;13.43;;;6.05;;
36233;SDS011;43467;50.890;5.982;2023-04-15T06:47:37;12.45;;;5.55;;
36233;SDS011;43467;50.890;5.982;2023-04-15T06:50:02;14.95;;;5.40;;
36233;SDS011;43467;50.890;5.982;2023-04-15T06:52:28;13.57;;;5.57;;
36233;SDS011;43467;50.890;5.982;2023-04-15T06:54:53;15.25;;;5.78;;
36233;SDS011;43467;50.890;5.982;2023-04-15T06:57:18;12.77;;;5.15;;
36233;SDS011;43467;50.890;5.982;2023-04-15T06:59:44;12.75;;;5.47;;
36233;SDS011;43467;50.890;5.982;2023-04-15T07:02:10;12.23;;;5.50;;
36233;SDS011;43467;50.890;5.982;2023-04-15T07:04:37;12.80;;;6.53;;
36233;SDS011;43467;50.890;5.982;2023-04-15T07:07:04;13.13;;;5.85;;
36233;SDS011;43467;50.890;5.982;2023-04-15T07:09:30;9.90;;;5.30;;
36233;SDS011;43467;50.890;5.982;2023-04-15T07:11:56;11.02;;;5.95;;
36233;SDS011;43467;50.890;5.982;2023-04-15T07:14:21;13.75;;;6.10;;
36233;SDS011;43467;50.890;5.982;2023-04-15T07:16:47;11.38;;;5.55;;
36233;SDS011;43467;50.890;5.982;2023-04-15T07:19:12;9.50;;;5.95;;
36233;SDS011;43467;50.890;5.982;2023-04-15T07:21:38;12.52;;;6.22;;
36233;SDS011;43467;50.890;5.982;2023-04-15T07:24:03;8.13;;;5.30;;
36233;SDS011;43467;50.890;5.982;2023-04-15T07:26:29;10.02;;;5.82;;
36233;SDS011;43467;50.890;5.982;2023-04-15T07:28:54;19.52;;;6.45;;
36233;SDS011;43467;50.890;5.982;2023-04-15T07:31:20;11.65;;;5.82;;
36233;SDS011;43467;50.890;5.982;2023-04-15T07:33:46;12.55;;;6.75;;
36233;SDS011;43467;50.890;5.982;2023-04-15T07:36:11;10.95;;;6.18;;
36233;SDS011;43467;50.890;5.982;2023-04-15T07:38:37;11.60;;;6.45;;
36233;SDS011;43467;50.890;5.982;2023-04-15T07:41:03;14.32;;;6.50;;
36233;SDS011;43467;50.890;5.982;2023-04-15T07:43:28;11.07;;;6.03;;
36233;SDS011;43467;50.890;5.982;2023-04-15T07:45:54;14.70;;;5.85;;
36233;SDS011;43467;50.890;5.982;2023-04-15T07:48:19;9.40;;;6.22;;
36233;SDS011;43467;50.890;5.982;2023-04-15T07:50:45;14.13;;;7.07;;
36233;SDS011;43467;50.890;5.982;2023-04-15T07:53:10;14.80;;;6.65;;
36233;SDS011;43467;50.890;5.982;2023-04-15T07:55:36;16.80;;;7.78;;
36233;SDS011;43467;50.890;5.982;2023-04-15T07:58:01;14.63;;;7.72;;
36233;SDS011;43467;50.890;5.982;2023-04-15T08:00:26;16.45;;;9.15;;
36233;SDS011;43467;50.890;5.982;2023-04-15T08:02:52;14.57;;;8.90;;
36233;SDS011;43467;50.890;5.982;2023-04-15T08:05:18;16.48;;;10.13;;
36233;SDS011;43467;50.890;5.982;2023-04-15T08:07:44;17.33;;;9.63;;
36233;SDS011;43467;50.890;5.982;2023-04-15T08:10:10;14.35;;;9.57;;
36233;SDS011;43467;50.890;5.982;2023-04-15T08:12:36;15.45;;;10.43;;
36233;SDS011;43467;50.890;5.982;2023-04-15T08:15:01;17.52;;;10.45;;
36233;SDS011;43467;50.890;5.982;2023-04-15T08:17:27;12.77;;;9.88;;
36233;SDS011;43467;50.890;5.982;2023-04-15T08:19:52;14.45;;;10.07;;
36233;SDS011;43467;50.890;5.982;2023-04-15T08:22:18;17.60;;;10.88;;
36233;SDS011;43467;50.890;5.982;2023-04-15T08:24:43;15.27;;;10.73;;
36233;SDS011;43467;50.890;5.982;2023-04-15T08:27:09;13.52;;;10.30;;
36233;SDS011;43467;50.890;5.982;2023-04-15T08:29:34;17.08;;;10.65;;
36233;SDS011;43467;50.890;5.982;2023-04-15T08:32:00;16.73;;;9.95;;
36233;SDS011;43467;50.890;5.982;2023-04-15T08:34:26;15.63;;;10.05;;
36233;SDS011;43467;50.890;5.982;2023-04-15T08:36:52;14.77;;;9.75;;
36233;SDS011;43467;50.890;5.982;2023-04-15T08:39:17;14.38;;;10.10;;
36233;SDS011;43467;50.890;5.982;2023-04-15T08:41:50;12.35;;;9.48;;
36233;SDS011;43467;50.890;5.982;2023-04-15T08:44:20;15.30;;;10.20;;
36233;SDS011;43467;50.890;5.982;2023-04-15T08:46:48;13.82;;;9.32;;
36233;SDS011;43467;50.890;5.982;2023-04-15T08:49:16;14.45;;;8.70;;
36233;SDS011;43467;50.890;5.982;2023-04-15T08:51:43;12.63;;;8.90;;
36233;SDS011;43467;50.890;5.982;2023-04-15T08:54:09;12.65;;;9.10;;
36233;SDS011;43467;50.890;5.982;2023-04-15T08:56:35;11.93;;;9.02;;
36233;SDS011;43467;50.890;5.982;2023-04-15T08:59:01;16.08;;;8.75;;
36233;SDS011;43467;50.890;5.982;2023-04-15T09:01:27;13.82;;;8.88;;
36233;SDS011;43467;50.890;5.982;2023-04-15T09:03:53;14.27;;;9.18;;
36233;SDS011;43467;50.890;5.982;2023-04-15T09:06:20;12.90;;;8.93;;
36233;SDS011;43467;50.890;5.982;2023-04-15T09:08:46;13.55;;;9.05;;
36233;SDS011;43467;50.890;5.982;2023-04-15T09:11:12;14.65;;;9.30;;
36233;SDS011;43467;50.890;5.982;2023-04-15T09:13:37;14.43;;;9.00;;
36233;SDS011;43467;50.890;5.982;2023-04-15T09:16:06;14.10;;;9.07;;
36233;SDS011;43467;50.890;5.982;2023-04-15T09:18:33;11.60;;;8.43;;
36233;SDS011;43467;50.890;5.982;2023-04-15T09:21:03;12.20;;;8.38;;
36233;SDS011;43467;50.890;5.982;2023-04-15T09:23:30;13.25;;;8.50;;
36233;SDS011;43467;50.890;5.982;2023-04-15T09:25:56;12.50;;;7.88;;
36233;SDS011;43467;50.890;5.982;2023-04-15T09:28:22;10.27;;;6.63;;
36233;SDS011;43467;50.890;5.982;2023-04-15T09:30:50;13.15;;;7.13;;
36233;SDS011;43467;50.890;5.982;2023-04-15T09:33:23;13.68;;;6.88;;
36233;SDS011;43467;50.890;5.982;2023-04-15T09:36:23;11.60;;;6.72;;
36233;SDS011;43467;50.890;5.982;2023-04-15T09:38:54;13.02;;;7.22;;
36233;SDS011;43467;50.890;5.982;2023-04-15T09:41:26;12.10;;;6.63;;
36233;SDS011;43467;50.890;5.982;2023-04-15T09:43:52;10.00;;;6.68;;
36233;SDS011;43467;50.890;5.982;2023-04-15T09:46:18;25.13;;;7.45;;
36233;SDS011;43467;50.890;5.982;2023-04-15T09:48:43;12.05;;;6.40;;
36233;SDS011;43467;50.890;5.982;2023-04-15T09:51:09;11.20;;;7.50;;
36233;SDS011;43467;50.890;5.982;2023-04-15T09:53:35;11.52;;;6.30;;
36233;SDS011;43467;50.890;5.982;2023-04-15T09:56:02;9.40;;;5.57;;
36233;SDS011;43467;50.890;5.982;2023-04-15T09:58:32;11.18;;;6.22;;
36233;SDS011;43467;50.890;5.982;2023-04-15T10:01:01;11.60;;;6.82;;
36233;SDS011;43467;50.890;5.982;2023-04-15T10:03:28;12.07;;;5.95;;
36233;SDS011;43467;50.890;5.982;2023-04-15T10:05:57;13.55;;;7.38;;
36233;SDS011;43467;50.890;5.982;2023-04-15T10:08:25;11.73;;;7.22;;
36233;SDS011;43467;50.890;5.982;2023-04-15T10:10:57;11.75;;;6.68;;
36233;SDS011;43467;50.890;5.982;2023-04-15T10:13:23;13.70;;;7.22;;
36233;SDS011;43467;50.890;5.982;2023-04-15T10:18:21;5.25;;;3.92;;
36233;SDS011;43467;50.890;5.982;2023-04-15T10:20:49;4.60;;;3.63;;
36233;SDS011;43467;50.890;5.982;2023-04-15T10:23:15;6.28;;;3.45;;
36233;SDS011;43467;50.890;5.982;2023-04-15T10:25:43;4.90;;;3.33;;
36233;SDS011;43467;50.890;5.982;2023-04-15T10:28:10;5.32;;;3.58;;
36233;SDS011;43467;50.890;5.982;2023-04-15T10:30:36;5.13;;;3.22;;
36233;SDS011;43467;50.890;5.982;2023-04-15T10:33:03;9.70;;;3.78;;
36233;SDS011;43467;50.890;5.982;2023-04-15T10:35:31;4.63;;;3.50;;
36233;SDS011;43467;50.890;5.982;2023-04-15T10:37:58;5.82;;;3.60;;
36233;SDS011;43467;50.890;5.982;2023-04-15T10:40:30;6.65;;;3.83;;
36233;SDS011;43467;50.890;5.982;2023-04-15T10:42:58;4.20;;;3.10;;
36233;SDS011;43467;50.890;5.982;2023-04-15T10:45:35;4.65;;;3.60;;
36233;SDS011;43467;50.890;5.982;2023-04-15T10:48:03;6.85;;;4.05;;
36233;SDS011;43467;50.890;5.982;2023-04-15T10:50:32;6.70;;;3.13;;
36233;SDS011;43467;50.890;5.982;2023-04-15T10:52:58;7.57;;;3.47;;
36233;SDS011;43467;50.890;5.982;2023-04-15T10:55:32;4.45;;;3.40;;
36233;SDS011;43467;50.890;5.982;2023-04-15T10:58:00;5.43;;;3.20;;
36233;SDS011;43467;50.890;5.982;2023-04-15T11:00:29;3.83;;;2.78;;
36233;SDS011;43467;50.890;5.982;2023-04-15T11:03:09;7.05;;;3.63;;
36233;SDS011;43467;50.890;5.982;2023-04-15T11:08:08;6.90;;;3.97;;
36233;SDS011;43467;50.890;5.982;2023-04-15T11:15:29;7.20;;;4.30;;
36233;SDS011;43467;50.890;5.982;2023-04-15T11:17:58;6.13;;;3.83;;
36233;SDS011;43467;50.890;5.982;2023-04-15T11:22:57;5.22;;;3.38;;
36233;SDS011;43467;50.890;5.982;2023-04-15T11:25:23;4.32;;;3.05;;
36233;SDS011;43467;50.890;5.982;2023-04-15T11:27:51;4.75;;;3.42;;
36233;SDS011;43467;50.890;5.982;2023-04-15T11:30:18;3.33;;;2.42;;
36233;SDS011;43467;50.890;5.982;2023-04-15T11:32:46;3.25;;;2.50;;
36233;SDS011;43467;50.890;5.982;2023-04-15T11:35:12;7.20;;;3.03;;
36233;SDS011;43467;50.890;5.982;2023-04-15T11:37:37;3.90;;;2.53;;
36233;SDS011;43467;50.890;5.982;2023-04-15T11:40:03;3.90;;;2.50;;
36233;SDS011;43467;50.890;5.982;2023-04-15T11:42:30;6.72;;;3.55;;
36233;SDS011;43467;50.890;5.982;2023-04-15T11:45:08;6.13;;;3.90;;
36233;SDS011;43467;50.890;5.982;2023-04-15T11:47:38;6.78;;;3.38;;
36233;SDS011;43467;50.890;5.982;2023-04-15T11:52:59;7.50;;;3.72;;
36233;SDS011;43467;50.890;5.982;2023-04-15T11:55:27;5.07;;;3.60;;
36233;SDS011;43467;50.890;5.982;2023-04-15T12:00:34;3.67;;;3.05;;
36233;SDS011;43467;50.890;5.982;2023-04-15T12:03:13;6.85;;;3.83;;
36233;SDS011;43467;50.890;5.982;2023-04-15T12:11:12;5.68;;;4.47;;
36233;SDS011;43467;50.890;5.982;2023-04-15T12:13:42;8.00;;;4.50;;
36233;SDS011;43467;50.890;5.982;2023-04-15T12:16:08;6.63;;;4.55;;
36233;SDS011;43467;50.890;5.982;2023-04-15T12:18:36;5.57;;;3.45;;
36233;SDS011;43467;50.890;5.982;2023-04-15T12:21:09;4.35;;;3.92;;
36233;SDS011;43467;50.890;5.982;2023-04-15T12:23:54;5.22;;;3.95;;
36233;SDS011;43467;50.890;5.982;2023-04-15T12:26:28;5.80;;;4.00;;
36233;SDS011;43467;50.890;5.982;2023-04-15T12:29:03;5.82;;;4.50;;
36233;SDS011;43467;50.890;5.982;2023-04-15T12:31:32;5.07;;;4.22;;
36233;SDS011;43467;50.890;5.982;2023-04-15T12:33:58;5.00;;;3.92;;
36233;SDS011;43467;50.890;5.982;2023-04-15T12:36:25;7.10;;;4.32;;
36233;SDS011;43467;50.890;5.982;2023-04-15T12:38:51;4.50;;;4.00;;
36233;SDS011;43467;50.890;5.982;2023-04-15T12:41:21;4.93;;;4.05;;
36233;SDS011;43467;50.890;5.982;2023-04-15T12:43:48;6.38;;;4.38;;
36233;SDS011;43467;50.890;5.982;2023-04-15T12:46:14;5.50;;;4.57;;
36233;SDS011;43467;50.890;5.982;2023-04-15T12:48:41;4.93;;;3.80;;
36233;SDS011;43467;50.890;5.982;2023-04-15T12:51:08;4.32;;;3.60;;
36233;SDS011;43467;50.890;5.982;2023-04-15T12:53:35;6.97;;;3.80;;
36233;SDS011;43467;50.890;5.982;2023-04-15T12:56:01;5.65;;;3.85;;
36233;SDS011;43467;50.890;5.982;2023-04-15T12:58:26;4.88;;;3.90;;
36233;SDS011;43467;50.890;5.982;2023-04-15T13:00:54;5.78;;;4.20;;
36233;SDS011;43467;50.890;5.982;2023-04-15T13:03:21;5.57;;;4.10;;
36233;SDS011;43467;50.890;5.982;2023-04-15T13:05:47;4.65;;;4.07;;
36233;SDS011;43467;50.890;5.982;2023-04-15T13:08:14;6.68;;;3.78;;
36233;SDS011;43467;50.890;5.982;2023-04-15T13:10:41;9.18;;;4.63;;
36233;SDS011;43467;50.890;5.982;2023-04-15T13:13:08;6.10;;;4.50;;
36233;SDS011;43467;50.890;5.982;2023-04-15T13:15:33;4.88;;;4.25;;
36233;SDS011;43467;50.890;5.982;2023-04-15T13:18:00;7.53;;;4.80;;
36233;SDS011;43467;50.890;5.982;2023-04-15T13:20:26;6.28;;;4.20;;
36233;SDS011;43467;50.890;5.982;2023-04-15T13:22:51;7.05;;;5.00;;
36233;SDS011;43467;50.890;5.982;2023-04-15T13:25:17;7.97;;;4.35;;
36233;SDS011;43467;50.890;5.982;2023-04-15T13:27:43;5.90;;;4.50;;
36233;SDS011;43467;50.890;5.982;2023-04-15T13:30:08;5.60;;;3.97;;
36233;SDS011;43467;50.890;5.982;2023-04-15T13:32:34;4.88;;;4.20;;
36233;SDS011;43467;50.890;5.982;2023-04-15T13:35:00;4.82;;;3.60;;
36233;SDS011;43467;50.890;5.982;2023-04-15T13:37:26;8.55;;;3.92;;
36233;SDS011;43467;50.890;5.982;2023-04-15T13:39:52;4.15;;;3.17;;
36233;SDS011;43467;50.890;5.982;2023-04-15T13:42:18;5.63;;;3.25;;
36233;SDS011;43467;50.890;5.982;2023-04-15T13:44:45;4.63;;;3.40;;
36233;SDS011;43467;50.890;5.982;2023-04-15T13:47:10;5.57;;;3.08;;
36233;SDS011;43467;50.890;5.982;2023-04-15T13:49:37;5.13;;;3.58;;
36233;SDS011;43467;50.890;5.982;2023-04-15T13:52:02;4.97;;;3.03;;
36233;SDS011;43467;50.890;5.982;2023-04-15T13:54:27;4.72;;;3.80;;
36233;SDS011;43467;50.890;5.982;2023-04-15T13:56:53;6.65;;;3.33;;
36233;SDS011;43467;50.890;5.982;2023-04-15T13:59:21;4.95;;;3.67;;
36233;SDS011;43467;50.890;5.982;2023-04-15T14:01:46;4.05;;;3.40;;
36233;SDS011;43467;50.890;5.982;2023-04-15T14:04:12;5.68;;;3.20;;
36233;SDS011;43467;50.890;5.982;2023-04-15T14:06:38;5.85;;;2.95;;
36233;SDS011;43467;50.890;5.982;2023-04-15T14:09:04;3.85;;;3.15;;
36233;SDS011;43467;50.890;5.982;2023-04-15T14:11:30;3.60;;;2.60;;
36233;SDS011;43467;50.890;5.982;2023-04-15T14:13:56;4.60;;;2.50;;
36233;SDS011;43467;50.890;5.982;2023-04-15T14:16:21;3.72;;;2.80;;
36233;SDS011;43467;50.890;5.982;2023-04-15T14:18:47;3.42;;;2.90;;
36233;SDS011;43467;50.890;5.982;2023-04-15T14:21:13;5.43;;;2.80;;
36233;SDS011;43467;50.890;5.982;2023-04-15T14:23:39;4.65;;;2.55;;
36233;SDS011;43467;50.890;5.982;2023-04-15T14:26:05;3.45;;;2.40;;
36233;SDS011;43467;50.890;5.982;2023-04-15T14:28:30;3.72;;;2.35;;
36233;SDS011;43467;50.890;5.982;2023-04-15T14:30:56;12.20;;;3.88;;
36233;SDS011;43467;50.890;5.982;2023-04-15T14:33:21;4.28;;;3.00;;
36233;SDS011;43467;50.890;5.982;2023-04-15T14:35:48;4.07;;;2.78;;
36233;SDS011;43467;50.890;5.982;2023-04-15T14:38:14;3.20;;;2.80;;
36233;SDS011;43467;50.890;5.982;2023-04-15T14:40:40;5.93;;;3.53;;
36233;SDS011;43467;50.890;5.982;2023-04-15T14:43:06;5.72;;;3.63;;
36233;SDS011;43467;50.890;5.982;2023-04-15T14:45:32;5.57;;;3.28;;
36233;SDS011;43467;50.890;5.982;2023-04-15T14:47:57;6.03;;;3.00;;
36233;SDS011;43467;50.890;5.982;2023-04-15T14:50:23;6.25;;;3.25;;
36233;SDS011;43467;50.890;5.982;2023-04-15T14:52:49;4.05;;;2.78;;
36233;SDS011;43467;50.890;5.982;2023-04-15T14:55:14;4.25;;;3.50;;
36233;SDS011;43467;50.890;5.982;2023-04-15T14:57:40;3.42;;;2.50;;
36233;SDS011;43467;50.890;5.982;2023-04-15T15:00:06;5.65;;;3.40;;
36233;SDS011;43467;50.890;5.982;2023-04-15T15:02:33;6.10;;;2.75;;